createdAt,value
2019-05-03T00:01:45.345Z,27.47
2019-05-03T00:04:16.151Z,29.63
2019-05-03T00:06:47.121Z,31.63
2019-05-03T00:09:20.217Z,23.77
2019-05-03T00:11:52.710Z,29.80
2019-05-03T00:14:22.692Z,36.30
2019-05-03T00:16:53.097Z,33.87
2019-05-03T00:19:23.466Z,29.37
2019-05-03T00:21:53.865Z,31.80
2019-05-03T00:24:24.182Z,28.20
2019-05-03T00:26:54.567Z,30.03
2019-05-03T00:29:24.952Z,35.80
2019-05-03T00:31:55.839Z,27.00
2019-05-03T00:34:32.396Z,29.10
2019-05-03T00:37:04.893Z,39.50
2019-05-03T00:39:45.715Z,31.70
2019-05-03T00:42:16.244Z,33.43
2019-05-03T00:44:46.608Z,29.17
2019-05-03T00:47:16.999Z,37.10
2019-05-03T00:49:47.387Z,36.80
2019-05-03T00:52:17.750Z,35.40
2019-05-03T00:54:48.410Z,36.80
2019-05-03T00:57:18.802Z,37.50
2019-05-03T00:59:49.126Z,29.67
2019-05-03T01:02:19.691Z,28.53
2019-05-03T01:04:51.753Z,35.37
2019-05-03T01:07:22.378Z,31.40
2019-05-03T01:09:53.020Z,28.80
2019-05-03T01:12:23.402Z,29.87
2019-05-03T01:14:55.339Z,31.23
2019-05-03T01:17:25.688Z,31.70
2019-05-03T01:19:56.034Z,27.67
2019-05-03T01:22:26.695Z,30.33
2019-05-03T01:24:57.127Z,31.63
2019-05-03T01:27:27.497Z,35.77
2019-05-03T01:29:57.862Z,29.87
2019-05-03T01:32:29.348Z,32.87
2019-05-03T01:34:59.708Z,30.33
2019-05-03T01:37:31.921Z,30.03
2019-05-03T01:40:02.604Z,35.10
2019-05-03T01:42:33.388Z,32.20
2019-05-03T01:45:03.935Z,36.97
2019-05-03T01:47:44.483Z,32.43
2019-05-03T01:50:39.593Z,25.73
2019-05-03T01:53:12.530Z,35.10
2019-05-03T01:55:52.585Z,30.33
2019-05-03T01:58:24.682Z,34.07
2019-05-03T02:01:02.837Z,34.73
2019-05-03T02:03:43.964Z,30.90
2019-05-03T02:06:14.497Z,28.70
2019-05-03T02:08:44.744Z,32.10
2019-05-03T02:11:15.093Z,29.20
2019-05-03T02:13:45.546Z,26.13
2019-05-03T02:16:15.868Z,28.30
2019-05-03T02:18:46.244Z,29.50
2019-05-03T02:21:16.641Z,28.40
2019-05-03T02:23:47.092Z,28.83
2019-05-03T02:26:17.452Z,34.77
2019-05-03T02:28:47.823Z,29.57
2019-05-03T02:31:18.206Z,30.23
2019-05-03T02:33:48.488Z,28.90
2019-05-03T02:36:18.854Z,31.27
2019-05-03T02:38:49.317Z,32.13
2019-05-03T02:41:22.531Z,31.13
2019-05-03T02:43:55.778Z,32.37
2019-05-03T02:47:05.353Z,32.10
2019-05-03T02:49:47.073Z,37.63
2019-05-03T02:52:37.151Z,30.70
2019-05-03T02:55:11.213Z,30.80
2019-05-03T02:57:41.587Z,31.27
2019-05-03T03:00:16.291Z,33.93
2019-05-03T03:02:46.823Z,32.00
2019-05-03T03:05:17.400Z,30.27
2019-05-03T03:07:49.755Z,32.70
2019-05-03T03:10:20.423Z,31.50
2019-05-03T03:12:55.238Z,36.63
2019-05-03T03:15:26.271Z,31.57
2019-05-03T03:17:58.035Z,31.17
2019-05-03T03:20:30.125Z,42.20
2019-05-03T03:23:05.973Z,35.07
2019-05-03T03:25:39.543Z,35.90
2019-05-03T03:28:12.868Z,34.10
2019-05-03T03:31:37.460Z,32.43
2019-05-03T03:34:08.776Z,32.67
2019-05-03T03:36:59.358Z,36.87
2019-05-03T03:39:21.136Z,36.20
2019-05-03T03:41:55.551Z,33.93
2019-05-03T03:44:25.879Z,33.67
2019-05-03T03:46:58.335Z,39.50
2019-05-03T03:49:30.045Z,36.17
2019-05-03T03:52:01.849Z,40.03
2019-05-03T03:54:35.454Z,35.80
2019-05-03T03:57:08.215Z,37.37
2019-05-03T03:59:38.140Z,36.00
2019-05-03T04:02:08.539Z,38.40
2019-05-03T04:04:39.709Z,39.50
2019-05-03T04:07:10.511Z,44.70
2019-05-03T04:09:41.716Z,39.10
2019-05-03T04:12:12.527Z,41.83
2019-05-03T04:14:58.265Z,41.77
2019-05-03T04:17:58.057Z,40.07
2019-05-03T04:20:35.935Z,37.00
2019-05-03T04:23:05.875Z,43.47
2019-05-03T04:25:37.097Z,43.63
2019-05-03T04:28:08.449Z,45.43
2019-05-03T04:30:38.866Z,49.17
2019-05-03T04:33:09.208Z,48.43
2019-05-03T04:35:39.571Z,41.03
2019-05-03T04:38:09.969Z,47.43
2019-05-03T04:40:40.426Z,41.33
2019-05-03T04:43:10.878Z,41.53
2019-05-03T04:45:41.182Z,45.33
2019-05-03T04:48:11.528Z,40.80
2019-05-03T04:50:41.956Z,40.00
2019-05-03T04:53:12.326Z,40.77
2019-05-03T04:55:42.669Z,43.17
2019-05-03T04:58:15.929Z,44.97
2019-05-03T05:00:46.556Z,38.47
2019-05-03T05:03:17.072Z,43.97
2019-05-03T05:05:47.391Z,37.87
2019-05-03T05:08:17.785Z,40.10
2019-05-03T05:10:48.532Z,41.13
2019-05-03T05:13:19.379Z,42.37
2019-05-03T05:15:49.717Z,45.30
2019-05-03T05:18:30.063Z,51.20
2019-05-03T05:21:25.442Z,37.77
2019-05-03T05:24:06.037Z,40.07
2019-05-03T05:26:55.228Z,29.43
2019-05-03T05:29:28.136Z,30.70
2019-05-03T05:31:58.752Z,23.70
2019-05-03T05:34:29.116Z,25.33
2019-05-03T05:36:59.517Z,33.07
2019-05-03T05:39:29.875Z,20.40
2019-05-03T05:42:00.276Z,25.57
2019-05-03T05:44:30.598Z,25.13
2019-05-03T05:47:16.968Z,20.73
2019-05-03T05:50:09.134Z,18.13
2019-05-03T05:52:39.475Z,18.00
2019-05-03T05:55:29.028Z,26.37
2019-05-03T05:58:08.001Z,20.70
2019-05-03T06:00:44.753Z,22.10
2019-05-03T06:03:15.007Z,19.17
2019-05-03T06:05:45.390Z,17.90
2019-05-03T06:08:25.138Z,17.93
2019-05-03T06:11:14.903Z,19.83
2019-05-03T06:13:51.204Z,18.03
2019-05-03T06:16:32.533Z,12.07
2019-05-03T06:19:11.290Z,17.37
2019-05-03T06:21:51.079Z,14.33
2019-05-03T06:24:26.597Z,13.77
2019-05-03T06:27:08.338Z,16.27
2019-05-03T06:29:38.930Z,7.97
2019-05-03T06:32:25.252Z,7.20
2019-05-03T06:34:55.304Z,9.23
2019-05-03T06:37:28.271Z,9.13
2019-05-03T06:39:58.660Z,6.43
2019-05-03T06:42:29.013Z,11.97
2019-05-03T06:45:07.386Z,7.77
2019-05-03T06:47:31.453Z,10.43
2019-05-03T06:50:01.856Z,8.83
2019-05-03T06:52:32.672Z,5.57
2019-05-03T06:55:06.501Z,8.43
2019-05-03T06:57:40.111Z,8.47
2019-05-03T07:00:27.441Z,10.17
2019-05-03T07:03:22.521Z,8.90
2019-05-03T07:06:10.643Z,10.90
2019-05-03T07:08:55.297Z,8.20
2019-05-03T07:11:25.628Z,7.93
2019-05-03T07:13:56.058Z,7.43
2019-05-03T07:16:26.576Z,9.40
2019-05-03T07:18:58.608Z,9.87
2019-05-03T07:21:29.243Z,21.67
2019-05-03T07:23:59.603Z,6.53
2019-05-03T07:26:29.981Z,7.13
2019-05-03T07:29:00.376Z,11.00
2019-05-03T07:31:31.222Z,7.10
2019-05-03T07:34:01.729Z,5.47
2019-05-03T07:36:32.560Z,8.23
2019-05-03T07:39:03.035Z,10.40
2019-05-03T07:41:35.653Z,7.10
2019-05-03T07:44:06.070Z,9.90
2019-05-03T07:46:36.412Z,5.93
2019-05-03T07:49:06.736Z,10.70
2019-05-03T07:51:37.115Z,10.97
2019-05-03T07:54:07.538Z,11.03
2019-05-03T07:56:44.490Z,7.23
2019-05-03T07:59:15.047Z,9.83
2019-05-03T08:01:49.321Z,6.43
2019-05-03T08:04:19.666Z,6.50
2019-05-03T08:06:50.094Z,10.13
2019-05-03T08:09:20.417Z,8.60
2019-05-03T08:11:50.862Z,5.70
2019-05-03T08:14:21.206Z,14.00
2019-05-03T08:16:51.568Z,8.40
2019-05-03T08:19:24.499Z,7.43
2019-05-03T08:21:56.477Z,5.73
2019-05-03T08:24:26.236Z,7.00
2019-05-03T08:26:56.610Z,10.97
2019-05-03T08:29:26.983Z,8.47
2019-05-03T08:32:19.186Z,8.73
2019-05-03T08:35:08.465Z,8.20
2019-05-03T08:37:54.548Z,12.40
2019-05-03T08:40:26.626Z,9.93
2019-05-03T08:42:57.029Z,6.50
2019-05-03T08:45:28.067Z,6.47
2019-05-03T08:47:58.457Z,10.43
2019-05-03T08:50:28.795Z,12.10
2019-05-03T08:53:00.348Z,15.00
2019-05-03T08:55:31.368Z,10.03
2019-05-03T08:58:01.818Z,8.77
2019-05-03T09:00:35.327Z,13.10
2019-05-03T09:03:05.863Z,10.50
2019-05-03T09:05:36.600Z,10.60
2019-05-03T09:08:07.972Z,8.40
2019-05-03T09:10:50.302Z,12.97
2019-05-03T09:15:57.014Z,10.63
2019-05-03T09:18:27.566Z,6.73
2019-05-03T09:20:57.988Z,6.10
2019-05-03T09:23:31.189Z,5.77
2019-05-03T09:26:01.588Z,11.90
2019-05-03T09:28:31.973Z,7.07
2019-05-03T09:31:04.525Z,12.23
2019-05-03T09:33:35.674Z,8.33
2019-05-03T09:36:06.240Z,12.10
2019-05-03T09:38:36.606Z,8.37
2019-05-03T09:41:06.942Z,9.48
2019-05-03T09:43:37.436Z,7.92
2019-05-03T09:46:07.767Z,7.10
2019-05-03T09:48:38.295Z,11.20
2019-05-03T09:51:09.009Z,7.30
2019-05-03T09:53:55.468Z,8.43
2019-05-03T09:56:53.675Z,6.42
2019-05-03T09:59:15.994Z,8.55
2019-05-03T10:01:46.389Z,6.95
2019-05-03T10:04:18.061Z,8.63
2019-05-03T10:06:49.770Z,14.10
2019-05-03T10:09:20.204Z,5.60
2019-05-03T10:11:50.560Z,7.58
2019-05-03T10:14:20.920Z,7.47
2019-05-03T10:17:07.075Z,5.97
2019-05-03T10:19:40.254Z,4.85
2019-05-03T10:22:10.283Z,11.03
2019-05-03T10:24:40.681Z,6.47
2019-05-03T10:27:11.069Z,8.15
2019-05-03T10:29:41.634Z,5.40
2019-05-03T10:32:19.773Z,6.57
2019-05-03T10:34:59.013Z,6.33
2019-05-03T10:37:31.317Z,7.70
2019-05-03T10:40:07.752Z,7.03
2019-05-03T10:42:36.737Z,9.08
2019-05-03T10:45:07.647Z,6.22
2019-05-03T10:47:38.127Z,6.45
2019-05-03T10:50:09.016Z,7.58
2019-05-03T10:52:44.740Z,6.65
2019-05-03T10:55:16.038Z,6.67
2019-05-03T10:57:49.362Z,10.18
2019-05-03T11:00:42.539Z,9.43
2019-05-03T11:02:59.727Z,9.23
2019-05-03T11:05:30.114Z,12.60
2019-05-03T11:08:02.439Z,9.50
2019-05-03T11:10:32.841Z,7.33
2019-05-03T11:13:05.778Z,15.43
2019-05-03T11:15:35.487Z,4.60
2019-05-03T11:18:06.397Z,4.53
2019-05-03T11:20:37.495Z,6.55
2019-05-03T11:23:09.581Z,3.55
2019-05-03T11:25:39.953Z,7.20
2019-05-03T11:28:16.451Z,4.97
2019-05-03T11:30:55.612Z,6.85
2019-05-03T11:33:35.227Z,4.33
2019-05-03T11:36:21.162Z,8.68
2019-05-03T11:38:51.632Z,5.67
2019-05-03T11:41:30.247Z,22.82
2019-05-03T11:43:53.972Z,4.33
2019-05-03T11:46:24.814Z,4.35
2019-05-03T11:48:55.279Z,10.72
2019-05-03T11:51:25.983Z,5.50
2019-05-03T11:53:56.359Z,5.65
2019-05-03T11:56:27.303Z,6.85
2019-05-03T11:58:57.693Z,8.48
2019-05-03T12:01:40.626Z,5.78
2019-05-03T12:04:11.026Z,7.45
2019-05-03T12:06:41.457Z,11.68
2019-05-03T12:09:15.452Z,8.83
2019-05-03T12:11:45.369Z,6.50
2019-05-03T12:14:15.697Z,6.47
2019-05-03T12:17:14.417Z,7.15
2019-05-03T12:19:30.021Z,9.35
2019-05-03T12:21:57.044Z,4.03
2019-05-03T12:24:28.551Z,4.93
2019-05-03T12:26:59.533Z,12.05
2019-05-03T12:29:29.895Z,9.75
2019-05-03T12:32:00.263Z,9.20
2019-05-03T12:34:30.708Z,6.95
2019-05-03T12:37:01.199Z,9.90
2019-05-03T12:39:35.818Z,10.10
2019-05-03T12:42:07.575Z,8.55
2019-05-03T12:44:38.140Z,7.12
2019-05-03T12:47:09.349Z,7.92
2019-05-03T12:49:39.745Z,10.50
2019-05-03T12:52:10.581Z,8.98
2019-05-03T12:54:42.508Z,9.20
2019-05-03T12:57:13.191Z,4.25
2019-05-03T12:59:58.677Z,11.63
2019-05-03T13:02:44.513Z,9.38
2019-05-03T13:05:15.490Z,11.57
2019-05-03T13:08:05.579Z,10.70
2019-05-03T13:10:36.005Z,9.23
2019-05-03T13:13:06.464Z,8.97
2019-05-03T13:15:36.811Z,7.43
2019-05-03T13:18:07.662Z,8.00
2019-05-03T13:20:38.043Z,16.33
2019-05-03T13:23:08.406Z,5.53
2019-05-03T13:25:38.763Z,7.67
2019-05-03T13:28:09.438Z,5.20
2019-05-03T13:30:39.885Z,8.83
2019-05-03T13:33:10.370Z,8.30
2019-05-03T13:35:44.628Z,43.60
2019-05-03T13:38:15.278Z,10.73
2019-05-03T13:40:46.925Z,5.00
2019-05-03T13:43:17.221Z,3.60
2019-05-03T13:45:47.591Z,8.47
2019-05-03T13:48:20.938Z,14.83
2019-05-03T13:50:50.326Z,7.00
2019-05-03T13:53:20.675Z,5.37
2019-05-03T13:55:51.273Z,6.87
2019-05-03T13:58:21.593Z,8.37
2019-05-03T14:00:51.944Z,6.93
2019-05-03T14:03:22.343Z,10.60
2019-05-03T14:05:52.903Z,7.47
2019-05-03T14:08:25.284Z,7.77
2019-05-03T14:10:55.658Z,8.67
2019-05-03T14:13:26.307Z,4.37
2019-05-03T14:15:56.965Z,5.13
2019-05-03T14:18:27.325Z,7.13
2019-05-03T14:21:25.434Z,4.20
2019-05-03T14:24:11.176Z,8.67
2019-05-03T14:26:44.834Z,11.37
2019-05-03T14:29:15.351Z,6.63
2019-05-03T14:31:45.719Z,11.23
2019-05-03T14:34:17.446Z,6.17
2019-05-03T14:36:48.038Z,6.10
2019-05-03T14:39:18.413Z,4.07
2019-05-03T14:41:48.842Z,7.87
2019-05-03T14:44:19.186Z,8.30
2019-05-03T14:46:49.833Z,11.77
2019-05-03T14:49:20.183Z,5.33
2019-05-03T14:51:50.560Z,8.37
2019-05-03T14:54:22.467Z,8.27
2019-05-03T14:57:08.903Z,8.50
2019-05-03T15:00:01.317Z,6.50
2019-05-03T15:02:47.655Z,4.43
2019-05-03T15:05:15.069Z,4.13
2019-05-03T15:07:46.191Z,4.03
2019-05-03T15:10:17.901Z,3.73
2019-05-03T15:12:48.270Z,8.20
2019-05-03T15:15:19.063Z,7.50
2019-05-03T15:17:49.519Z,4.93
2019-05-03T15:20:20.285Z,10.30
2019-05-03T15:22:50.575Z,6.67
2019-05-03T15:25:21.093Z,2.93
2019-05-03T15:27:51.462Z,8.10
2019-05-03T15:30:21.877Z,7.57
2019-05-03T15:32:57.663Z,6.23
2019-05-03T15:35:25.870Z,8.27
2019-05-03T15:37:56.347Z,6.23
2019-05-03T15:40:27.900Z,6.33
2019-05-03T15:43:15.273Z,4.17
2019-05-03T15:46:05.533Z,3.67
2019-05-03T15:48:48.000Z,5.50
2019-05-03T15:51:18.397Z,7.43
2019-05-03T15:53:48.693Z,4.77
2019-05-03T15:56:19.364Z,6.00
2019-05-03T15:58:49.889Z,7.70
2019-05-03T16:01:20.285Z,7.33
2019-05-03T16:03:50.650Z,7.30
2019-05-03T16:06:20.958Z,3.63
2019-05-03T16:08:51.402Z,16.63
2019-05-03T16:11:21.729Z,5.90
2019-05-03T16:13:52.139Z,4.77
2019-05-03T16:16:22.522Z,7.43
2019-05-03T16:18:52.877Z,8.73
2019-05-03T16:21:25.053Z,7.00
2019-05-03T16:23:55.632Z,16.07
2019-05-03T16:26:27.252Z,15.93
2019-05-03T16:29:09.081Z,10.03
2019-05-03T16:31:39.604Z,6.77
2019-05-03T16:34:11.060Z,6.90
2019-05-03T16:36:41.501Z,9.27
2019-05-03T16:39:11.848Z,8.70
2019-05-03T16:41:44.738Z,3.83
2019-05-03T16:44:16.523Z,5.03
2019-05-03T16:46:47.433Z,7.57
2019-05-03T16:49:17.959Z,4.93
2019-05-03T16:51:48.284Z,7.93
2019-05-03T16:54:18.726Z,3.90
2019-05-03T16:56:49.044Z,5.37
2019-05-03T16:59:19.505Z,3.50
2019-05-03T17:01:49.872Z,3.43
2019-05-03T17:04:45.528Z,8.30
2019-05-03T17:07:37.930Z,4.93
2019-05-03T17:10:20.364Z,10.10
2019-05-03T17:12:50.748Z,8.37
2019-05-03T17:15:21.194Z,6.50
2019-05-03T17:17:51.880Z,7.90
2019-05-03T17:20:22.310Z,5.00
2019-05-03T17:22:52.826Z,14.23
2019-05-03T17:25:24.525Z,3.40
2019-05-03T17:27:55.229Z,6.50
2019-05-03T17:30:33.705Z,6.07
2019-05-03T17:32:57.704Z,6.37
2019-05-03T17:35:28.237Z,6.40
2019-05-03T17:37:59.712Z,11.40
2019-05-03T17:40:49.324Z,7.30
2019-05-03T17:43:35.740Z,5.13
2019-05-03T17:46:07.215Z,11.20
2019-05-03T17:48:37.693Z,7.03
2019-05-03T17:51:08.075Z,3.73
2019-05-03T17:53:57.376Z,7.57
2019-05-03T17:56:35.385Z,7.07
2019-05-03T17:59:16.387Z,10.33
2019-05-03T18:02:06.863Z,8.60
2019-05-03T18:04:48.038Z,8.90
2019-05-03T18:07:49.667Z,5.70
2019-05-03T18:10:20.028Z,3.77
2019-05-03T18:12:51.305Z,9.30
2019-05-03T18:15:21.636Z,6.90
2019-05-03T18:17:52.243Z,4.67
2019-05-03T18:20:22.632Z,7.13
2019-05-03T18:22:54.740Z,5.43
2019-05-03T18:25:25.162Z,5.63
2019-05-03T18:27:56.540Z,9.93
2019-05-03T18:30:27.335Z,12.37
2019-05-03T18:32:57.652Z,10.37
2019-05-03T18:35:28.118Z,15.87
2019-05-03T18:37:59.056Z,9.93
2019-05-03T18:40:31.232Z,11.33
2019-05-03T18:43:09.509Z,5.93
2019-05-03T18:45:57.544Z,13.50
2019-05-03T18:48:27.987Z,10.30
2019-05-03T18:50:58.354Z,12.60
2019-05-03T18:53:28.754Z,7.17
2019-05-03T18:55:59.186Z,6.40
2019-05-03T18:58:29.576Z,10.93
2019-05-03T19:01:01.172Z,12.97
2019-05-03T19:03:34.207Z,9.53
2019-05-03T19:06:08.376Z,13.10
2019-05-03T19:08:56.476Z,16.53
2019-05-03T19:11:36.802Z,10.97
2019-05-03T19:14:10.097Z,9.77
2019-05-03T19:16:50.148Z,8.50
2019-05-03T19:19:20.854Z,8.17
2019-05-03T19:21:51.276Z,13.07
2019-05-03T19:24:21.650Z,17.17
2019-05-03T19:26:52.036Z,12.57
2019-05-03T19:29:25.003Z,13.60
2019-05-03T19:31:55.444Z,13.03
2019-05-03T19:34:26.934Z,12.43
2019-05-03T19:36:57.376Z,8.50
2019-05-03T19:39:28.182Z,9.37
2019-05-03T19:41:58.556Z,12.40
2019-05-03T19:44:28.939Z,10.97
2019-05-03T19:46:59.219Z,9.80
2019-05-03T19:49:30.828Z,10.80
2019-05-03T19:52:02.162Z,13.77
2019-05-03T19:54:36.151Z,10.17
2019-05-03T19:57:05.043Z,17.93
2019-05-03T19:59:52.008Z,19.13
2019-05-03T20:02:35.170Z,16.13
2019-05-03T20:05:38.171Z,16.90
2019-05-03T20:08:16.829Z,12.77
2019-05-03T20:10:47.542Z,15.07
2019-05-03T20:13:18.042Z,10.80
2019-05-03T20:15:48.502Z,11.13
2019-05-03T20:18:18.900Z,14.20
2019-05-03T20:20:49.282Z,13.17
2019-05-03T20:23:19.702Z,10.17
2019-05-03T20:25:50.065Z,13.67
2019-05-03T20:28:20.382Z,10.47
2019-05-03T20:30:50.730Z,12.60
2019-05-03T20:33:21.210Z,15.63
2019-05-03T20:35:53.768Z,22.90
2019-05-03T20:38:24.621Z,18.90
2019-05-03T20:40:57.260Z,19.50
2019-05-03T20:43:52.210Z,21.43
2019-05-03T20:46:28.405Z,16.57
2019-05-03T20:49:01.856Z,14.07
2019-05-03T20:51:34.430Z,17.97
2019-05-03T20:54:04.984Z,17.27
2019-05-03T20:56:35.510Z,20.63
2019-05-03T20:59:05.964Z,20.57
2019-05-03T21:01:37.389Z,20.77
2019-05-03T21:04:07.712Z,17.90
2019-05-03T21:06:38.084Z,15.37
2019-05-03T21:09:09.548Z,165.53
2019-05-03T21:11:41.510Z,22.10
2019-05-03T21:14:12.145Z,14.27
2019-05-03T21:17:04.621Z,17.97
2019-05-03T21:19:57.191Z,9.33
2019-05-03T21:22:40.744Z,19.10
2019-05-03T21:25:26.148Z,16.13
2019-05-03T21:27:56.536Z,21.97
2019-05-03T21:30:26.848Z,19.27
2019-05-03T21:32:57.253Z,15.47
2019-05-03T21:35:39.409Z,19.57
2019-05-03T21:37:59.592Z,14.97
2019-05-03T21:40:29.939Z,18.03
2019-05-03T21:43:00.284Z,17.10
2019-05-03T21:45:42.526Z,22.67
2019-05-03T21:48:24.968Z,15.67
2019-05-03T21:50:55.196Z,18.57
2019-05-03T21:53:25.648Z,12.63
2019-05-03T21:55:56.232Z,50.90
2019-05-03T21:58:26.590Z,21.57
2019-05-03T22:01:01.782Z,18.17
2019-05-03T22:03:32.235Z,19.77
2019-05-03T22:06:02.563Z,23.27
2019-05-03T22:08:34.934Z,20.50
2019-05-03T22:11:05.386Z,15.20
2019-05-03T22:13:36.353Z,24.50
2019-05-03T22:16:15.379Z,17.77
2019-05-03T22:18:46.346Z,22.33
2019-05-03T22:21:36.988Z,21.50
2019-05-03T22:24:36.152Z,29.43
2019-05-03T22:27:10.881Z,27.57
2019-05-03T22:29:41.208Z,35.57
2019-05-03T22:32:11.738Z,26.93
2019-05-03T22:34:42.184Z,33.83
2019-05-03T22:37:14.276Z,29.93
2019-05-03T22:39:45.194Z,29.23
2019-05-03T22:42:17.226Z,27.70
2019-05-03T22:44:47.686Z,29.10
2019-05-03T22:47:18.164Z,25.57
2019-05-03T22:49:48.528Z,28.43
2019-05-03T22:52:18.916Z,26.33
2019-05-03T22:54:49.279Z,29.93
2019-05-03T22:57:19.639Z,25.13
2019-05-03T22:59:50.055Z,27.50
2019-05-03T23:02:20.476Z,28.10
2019-05-03T23:04:50.880Z,27.07
2019-05-03T23:07:21.440Z,31.57
2019-05-03T23:09:51.828Z,27.00
2019-05-03T23:12:22.410Z,28.03
2019-05-03T23:14:52.864Z,37.37
2019-05-03T23:17:25.420Z,35.10
2019-05-03T23:20:01.131Z,24.70
2019-05-03T23:22:32.588Z,33.83
2019-05-03T23:25:05.122Z,26.30
2019-05-03T23:27:35.472Z,28.27
2019-05-03T23:30:06.986Z,27.17
2019-05-03T23:32:37.730Z,33.87
2019-05-03T23:35:08.132Z,28.63
2019-05-03T23:37:38.683Z,30.47
2019-05-03T23:40:09.407Z,27.37
2019-05-03T23:42:39.739Z,27.20
2019-05-03T23:45:10.106Z,30.13
2019-05-03T23:47:45.216Z,33.03
2019-05-03T23:50:18.994Z,32.53
2019-05-03T23:52:49.352Z,34.07
2019-05-03T23:55:28.290Z,43.17
2019-05-03T23:57:58.680Z,40.23
